Aérodrome :
LOGIN :

S'inscrire | Disclaimer

   EN    FR    IT 

 










Légende :    VFR   VFR Marginal   IFR   IFR Intensif   IFR Très Intensif
Visi : 
Plafond : 
>= 8 km
>= 3000ft
5 à 8 km
1000 à 3000 ft
1500m à 5 km
500 à 1000 ft
800 à 1500m
200 à 500 ft
< 800m
< 200 ft
Symboles :   Orages  Brouillard  Fortes neiges  Fortes précipitations  Vent > 20 kt
SIGMETs :   Divers  Orages  Givrage  Turbulence  Onde Orograph.  Cendres Volcan.






- Altitude de l'aérodrome : 358 ft


EGTC - Cranfield

DERNIER METAR :
  • 081120Z 03015KT CAVOK 25/17 Q1021

METARs EXPIRÉS :
  • 081050Z 05013KT 010V080 CAVOK 25/17 Q1021
  • 081020Z 04015KT CAVOK 25/17 Q1021
  • 080950Z 05013KT CAVOK 24/17 Q1021
  • 080920Z 05012KT CAVOK 23/17 Q1021
  • 080850Z 04013KT CAVOK 22/16 Q1021

TAF TAF EGTC
Valide du 08 à 12h jusqu'au 08 à 18h UTC


081057Z 0812/0818 04014KT CAVOK



MET'MAP, la Météo Aéronautique d'un coup d'oeil ! - Copyright ORBIFLY Décembre 2007 - Disclaimer

ORBIFLY MET'MAP TEAM :

Programmation & Développement : Alexandra Zaïnal
Sur une idée originale de : Baudouin d'Aumeries
Assistance à la programmation : Marc-Olivier Méhu
Soutien technique & logistique : Manuel Goepfert

Contact : metmap@orbifly.com




SOURCES & CREDITS :

   NOAA